createdAt,value
2022-11-02T07:24:27.021Z,1.10
2022-11-02T07:26:55.147Z,1.00
2022-11-02T07:29:23.162Z,1.10
2022-11-02T07:31:51.263Z,1.20
2022-11-02T07:34:19.335Z,1.60
2022-11-02T07:45:43.030Z,1.30
2022-11-02T07:48:11.067Z,1.03
2022-11-02T07:50:39.164Z,1.60
2022-11-02T07:53:07.423Z,1.30
2022-11-02T07:55:35.794Z,1.10
2022-11-02T07:58:05.337Z,1.20
2022-11-02T08:00:35.232Z,1.80
2022-11-02T08:03:06.066Z,1.13
2022-11-02T08:05:36.109Z,1.60
2022-11-02T08:08:06.347Z,1.60
2022-11-02T08:10:37.355Z,1.50
2022-11-02T08:13:08.468Z,1.50
2022-11-02T08:15:36.676Z,1.60
2022-11-02T08:18:07.812Z,1.50
2022-11-02T08:20:37.204Z,1.63
2022-11-02T08:23:05.362Z,1.30
2022-11-02T08:25:33.627Z,1.97
2022-11-02T08:28:02.475Z,1.43
2022-11-02T08:30:31.801Z,1.40
2022-11-02T08:33:04.535Z,1.40
2022-11-02T08:35:34.725Z,1.30
2022-11-02T08:38:03.584Z,1.43
2022-11-02T08:40:32.510Z,1.50
2022-11-02T08:43:25.856Z,1.47
2022-11-02T08:46:13.921Z,1.40
2022-11-02T08:48:41.944Z,1.50
2022-11-02T08:51:11.333Z,1.53
2022-11-02T08:53:39.386Z,1.90
2022-11-02T08:56:08.271Z,1.40
2022-11-02T08:58:36.312Z,1.60
2022-11-02T09:01:04.338Z,1.40
2022-11-02T09:03:32.372Z,1.47
2022-11-02T09:06:02.546Z,2.00
2022-11-02T09:08:33.180Z,1.90
2022-11-02T09:11:02.611Z,1.23
2022-11-02T09:13:31.126Z,1.80
2022-11-02T09:16:00.688Z,1.50
2022-11-02T09:18:28.949Z,1.40
2022-11-02T09:20:57.049Z,1.20
2022-11-02T09:23:25.067Z,1.67
2022-11-02T09:25:58.941Z,1.57
2022-11-02T09:28:27.173Z,1.63
2022-11-02T09:30:55.213Z,1.30
2022-11-02T09:33:23.228Z,1.50
2022-11-02T09:35:51.439Z,1.23
2022-11-02T09:38:19.598Z,1.20
2022-11-02T09:40:52.202Z,1.33
2022-11-02T09:43:31.103Z,1.50
2022-11-02T09:46:02.724Z,1.83
2022-11-02T09:48:34.398Z,1.20
2022-11-02T09:51:06.808Z,1.10
2022-11-02T09:53:45.002Z,1.50
2022-11-02T09:56:15.008Z,1.60
2022-11-02T09:58:45.048Z,1.50
2022-11-02T10:01:23.672Z,1.47
2022-11-02T10:04:04.516Z,1.90
2022-11-02T10:06:33.775Z,1.63
2022-11-02T10:09:06.706Z,1.50
2022-11-02T10:11:42.788Z,1.33
2022-11-02T10:14:15.253Z,1.53
2022-11-02T10:16:47.619Z,1.07
2022-11-02T10:19:20.208Z,1.40
2022-11-02T10:21:49.659Z,1.10
2022-11-02T10:24:28.960Z,1.20
2022-11-02T10:27:00.538Z,1.07
2022-11-02T10:29:41.046Z,1.20
2022-11-02T10:32:11.120Z,1.10
2022-11-02T10:34:39.396Z,1.23
2022-11-02T10:37:35.863Z,1.13
2022-11-02T10:40:12.883Z,1.00
2022-11-02T10:42:50.549Z,1.20
2022-11-02T10:45:38.654Z,0.90
2022-11-02T10:48:12.165Z,0.90
2022-11-02T10:50:48.495Z,1.10
2022-11-02T10:56:12.404Z,1.03
2022-11-02T10:58:43.352Z,1.03
2022-11-02T11:01:13.808Z,0.97
2022-11-02T11:03:55.936Z,0.77
2022-11-02T11:06:25.000Z,0.83
2022-11-02T11:08:53.768Z,0.70
2022-11-02T11:11:26.524Z,0.73
2022-11-02T11:16:48.402Z,0.70
2022-11-02T11:19:41.476Z,0.63
2022-11-02T11:22:27.301Z,0.63
2022-11-02T11:24:56.512Z,0.73
2022-11-02T11:27:24.885Z,0.80
2022-11-02T11:29:55.367Z,0.87
2022-11-02T11:32:30.198Z,0.67
2022-11-02T11:35:01.048Z,0.70
2022-11-02T11:37:29.343Z,0.70
2022-11-02T11:40:00.651Z,0.70
2022-11-02T11:42:30.617Z,0.73
2022-11-02T11:45:02.176Z,0.77
2022-11-02T11:47:35.037Z,0.80
2022-11-02T11:50:12.627Z,0.80
2022-11-02T11:53:09.220Z,0.80
2022-11-02T11:55:47.917Z,0.70
2022-11-02T11:58:18.138Z,0.73
2022-11-02T12:06:04.194Z,0.63
2022-11-02T12:08:41.681Z,0.60
2022-11-02T12:11:22.819Z,0.67
2022-11-02T12:14:00.134Z,0.73
2022-11-02T12:16:35.990Z,0.70
2022-11-02T12:19:13.351Z,0.70
2022-11-02T12:21:52.723Z,0.80
2022-11-02T12:24:41.360Z,0.70
2022-11-02T12:27:20.089Z,0.70
2022-11-02T12:30:20.826Z,0.80
2022-11-02T12:33:15.630Z,0.80
2022-11-02T12:36:01.498Z,0.63
2022-11-02T12:39:09.945Z,0.60
2022-11-02T12:42:01.247Z,0.60
2022-11-02T12:44:50.247Z,0.60
2022-11-02T12:47:26.332Z,0.60
2022-11-02T12:50:03.569Z,0.60
2022-11-02T12:52:40.133Z,0.80
2022-11-02T12:55:17.243Z,0.60
2022-11-02T12:57:45.985Z,0.70
2022-11-02T13:00:19.533Z,0.60
2022-11-02T13:02:55.526Z,0.70
2022-11-02T13:05:27.140Z,0.60
2022-11-02T13:08:04.768Z,0.63
2022-11-02T13:10:40.223Z,0.80
2022-11-02T13:13:15.459Z,0.60
2022-11-02T13:15:45.389Z,0.60
2022-11-02T13:18:18.125Z,0.90
2022-11-02T13:20:49.639Z,0.70
2022-11-02T13:23:22.984Z,0.70
2022-11-02T13:25:56.721Z,0.73
2022-11-02T13:28:32.341Z,0.60
2022-11-02T13:31:00.538Z,0.60
2022-11-02T13:33:33.464Z,0.63
2022-11-02T13:36:01.524Z,0.60
2022-11-02T13:38:32.673Z,0.60
2022-11-02T13:41:14.678Z,0.60
2022-11-02T13:43:55.462Z,0.80
2022-11-02T13:46:34.028Z,0.70
2022-11-02T13:49:03.439Z,0.70
2022-11-02T13:51:36.327Z,0.60
2022-11-02T13:54:09.157Z,0.70
2022-11-02T13:56:38.885Z,0.60
2022-11-02T13:59:09.114Z,0.70
2022-11-02T14:01:40.730Z,0.60
2022-11-02T14:04:10.382Z,0.60
2022-11-02T14:06:51.189Z,0.70
2022-11-02T14:09:26.102Z,0.60
2022-11-02T14:12:30.863Z,0.70
2022-11-02T14:15:32.280Z,0.60
2022-11-02T14:18:11.348Z,0.70
2022-11-02T14:20:41.160Z,0.60
2022-11-02T14:23:37.912Z,0.63
2022-11-02T14:26:06.474Z,0.60
2022-11-02T14:28:43.030Z,0.70
2022-11-02T14:31:46.125Z,0.80
2022-11-02T14:34:41.072Z,0.60
2022-11-02T14:37:24.442Z,0.70
2022-11-02T14:39:54.827Z,0.70
2022-11-02T14:42:36.738Z,0.70
2022-11-02T14:45:22.701Z,0.80
2022-11-02T14:47:57.753Z,0.60
2022-11-02T14:50:58.988Z,0.80
2022-11-02T14:53:29.372Z,0.60
2022-11-02T14:55:58.016Z,0.60
2022-11-02T14:58:31.630Z,0.70
2022-11-02T15:01:02.899Z,0.80
2022-11-02T15:03:35.336Z,0.80
2022-11-02T15:06:05.796Z,0.70
2022-11-02T15:08:36.212Z,0.70
2022-11-02T15:11:37.574Z,0.80
2022-11-02T15:14:32.778Z,0.70
2022-11-02T15:17:02.315Z,0.70
2022-11-02T15:19:43.891Z,0.80
2022-11-02T15:22:42.653Z,0.80
2022-11-02T15:25:14.136Z,0.90
2022-11-02T15:27:44.231Z,0.97
2022-11-02T15:30:15.494Z,0.90
2022-11-02T15:33:13.215Z,0.63
2022-11-02T15:35:41.390Z,0.70
2022-11-02T15:38:17.948Z,0.63
2022-11-02T15:40:49.638Z,0.73
2022-11-02T15:43:36.912Z,0.70
2022-11-02T15:46:10.662Z,0.73
2022-11-02T15:48:45.432Z,0.63
2022-11-02T15:51:19.295Z,0.73
2022-11-02T15:54:05.906Z,1.00
2022-11-02T15:56:55.913Z,1.00
2022-11-02T15:59:58.897Z,1.20
2022-11-02T16:02:28.806Z,1.20
2022-11-02T16:04:59.291Z,1.20
2022-11-02T16:07:38.097Z,1.20
2022-11-02T16:10:27.315Z,0.90
2022-11-02T16:13:03.126Z,0.97
2022-11-02T16:15:31.188Z,1.20
2022-11-02T16:17:59.658Z,1.87
2022-11-02T16:20:30.878Z,2.00
2022-11-02T16:23:01.838Z,1.97
2022-11-02T16:25:40.005Z,2.03
2022-11-02T16:28:20.027Z,1.97
2022-11-02T16:31:17.241Z,1.70
2022-11-02T16:33:47.852Z,1.87
2022-11-02T16:36:19.283Z,1.60
2022-11-02T16:38:49.437Z,1.40
2022-11-02T16:41:17.693Z,1.67
2022-11-02T16:43:47.636Z,1.30
2022-11-02T16:46:18.144Z,2.40
2022-11-02T16:49:12.659Z,1.80
2022-11-02T16:51:42.082Z,2.73
2022-11-02T16:54:40.241Z,2.60
2022-11-02T16:57:14.306Z,2.30
2022-11-02T16:59:51.189Z,2.60
2022-11-02T17:02:20.196Z,2.40
2022-11-02T17:04:48.758Z,2.00
2022-11-02T17:07:22.505Z,2.27
2022-11-02T17:09:53.996Z,2.33
2022-11-02T17:12:28.303Z,1.80
2022-11-02T17:14:56.573Z,2.00
2022-11-02T17:17:38.541Z,2.10
2022-11-02T17:20:16.669Z,2.67
2022-11-02T17:23:07.498Z,3.07
2022-11-02T17:25:36.685Z,3.87
2022-11-02T17:28:06.673Z,3.07
2022-11-02T17:30:45.658Z,3.70
2022-11-02T17:33:22.846Z,3.07
2022-11-02T17:35:52.523Z,2.40
2022-11-02T17:38:26.450Z,3.10
2022-11-02T17:40:55.112Z,2.93
2022-11-02T17:43:23.433Z,2.50
2022-11-02T17:45:56.349Z,2.87
2022-11-02T17:48:24.939Z,2.87
2022-11-02T17:50:54.095Z,2.27
2022-11-02T17:53:24.225Z,1.90
2022-11-02T17:55:52.225Z,1.70
2022-11-02T17:58:20.190Z,2.07
2022-11-02T18:00:48.306Z,1.50
2022-11-02T18:03:19.212Z,1.60
2022-11-02T18:05:50.145Z,1.40
2022-11-02T18:08:20.146Z,1.43
2022-11-02T18:10:52.363Z,1.53
2022-11-02T18:13:22.027Z,1.60
2022-11-02T18:15:50.164Z,1.57
2022-11-02T18:18:18.174Z,1.63
2022-11-02T18:20:46.178Z,1.90
2022-11-02T18:23:16.754Z,1.03
2022-11-02T18:25:44.889Z,1.70
2022-11-02T18:28:14.335Z,4.57
2022-11-02T18:30:44.077Z,4.40
2022-11-02T18:33:13.715Z,2.93
2022-11-02T18:35:42.205Z,2.93
2022-11-02T18:38:10.276Z,2.70
2022-11-02T18:40:38.289Z,2.63
2022-11-02T18:43:06.686Z,2.67
2022-11-02T18:45:36.318Z,2.10
2022-11-02T18:48:04.888Z,2.10
2022-11-02T18:50:33.129Z,1.83
2022-11-02T18:53:01.233Z,2.23
2022-11-02T18:55:29.638Z,2.63
2022-11-02T18:57:57.727Z,2.97
2022-11-02T19:00:25.700Z,3.33
2022-11-02T19:02:56.086Z,3.40
2022-11-02T19:05:41.459Z,2.90
2022-11-02T19:08:28.116Z,2.80
2022-11-02T19:10:56.591Z,3.47
2022-11-02T19:13:49.568Z,2.90
2022-11-02T19:16:17.596Z,3.03
2022-11-02T19:18:47.003Z,2.77
2022-11-02T19:21:15.019Z,2.97
2022-11-02T19:23:43.053Z,2.90
2022-11-02T19:26:11.221Z,2.10
2022-11-02T19:28:39.353Z,2.37
2022-11-02T19:31:08.283Z,2.17
2022-11-02T19:33:36.367Z,2.17
2022-11-02T19:36:07.105Z,2.10
2022-11-02T19:38:37.289Z,1.90
2022-11-02T19:41:09.872Z,1.83
2022-11-02T19:44:02.747Z,1.50
2022-11-02T19:46:30.830Z,1.67
2022-11-02T19:48:59.143Z,1.47
2022-11-02T19:51:29.778Z,1.40
2022-11-02T19:53:59.774Z,1.70
2022-11-02T19:56:29.748Z,1.70
2022-11-02T19:59:22.647Z,2.17
2022-11-02T20:01:51.986Z,2.73
2022-11-02T20:04:20.238Z,2.77
2022-11-02T20:06:50.323Z,2.37
2022-11-02T20:09:20.130Z,2.03
2022-11-02T20:11:48.540Z,2.60
2022-11-02T20:14:17.590Z,2.40
2022-11-02T20:16:58.298Z,3.57
2022-11-02T20:19:32.424Z,3.00
2022-11-02T20:22:01.882Z,3.37
2022-11-02T20:24:30.310Z,3.07
2022-11-02T20:27:02.777Z,2.73
2022-11-02T20:29:30.817Z,2.70
2022-11-02T20:31:58.845Z,2.20
2022-11-02T20:34:26.849Z,2.93
2022-11-02T20:36:54.952Z,3.30
2022-11-02T20:39:25.750Z,7.20
2022-11-02T20:41:55.957Z,9.70
2022-11-02T20:44:24.009Z,7.07
2022-11-02T20:46:53.442Z,2.70
2022-11-02T20:49:44.240Z,2.20
2022-11-02T20:52:10.671Z,2.80
2022-11-02T20:54:40.009Z,2.63
2022-11-02T20:57:08.034Z,2.37
2022-11-02T20:59:36.154Z,2.60
2022-11-02T21:02:04.472Z,2.23
2022-11-02T21:04:32.547Z,2.30
2022-11-02T21:07:00.502Z,1.87
2022-11-02T21:09:30.472Z,1.87
2022-11-02T21:12:17.383Z,2.03
2022-11-02T21:14:45.521Z,1.77
2022-11-02T21:17:13.568Z,2.00
2022-11-02T21:19:41.613Z,2.27
2022-11-02T21:22:09.698Z,2.23
2022-11-02T21:24:37.773Z,1.83
2022-11-02T21:27:08.536Z,2.20
2022-11-02T21:29:36.551Z,2.20
2022-11-02T21:32:04.803Z,2.77
2022-11-02T21:34:32.881Z,2.10
2022-11-02T21:37:03.101Z,2.20
2022-11-02T21:39:31.276Z,1.77
2022-11-02T21:41:59.916Z,1.60
2022-11-02T21:44:29.308Z,1.70
2022-11-02T21:46:57.423Z,1.90
2022-11-02T21:49:25.433Z,1.90
2022-11-02T21:51:53.457Z,2.20
2022-11-02T21:54:21.481Z,2.60
2022-11-02T21:56:50.392Z,2.50
2022-11-02T21:59:18.441Z,2.80
2022-11-02T22:01:49.189Z,2.10
2022-11-02T22:04:21.368Z,2.00
2022-11-02T22:06:49.672Z,2.20
2022-11-02T22:09:17.691Z,2.87
2022-11-02T22:11:45.792Z,2.60
2022-11-02T22:14:13.429Z,2.37
2022-11-02T22:16:42.772Z,2.20
2022-11-02T22:19:13.876Z,2.53
2022-11-02T22:21:43.750Z,3.17
2022-11-02T22:24:12.257Z,2.50
2022-11-02T22:26:41.060Z,2.10
2022-11-02T22:29:09.422Z,2.03
2022-11-02T22:31:39.458Z,2.43
2022-11-02T22:34:09.081Z,1.87
2022-11-02T22:36:40.022Z,1.97
2022-11-02T22:39:08.632Z,2.10
2022-11-02T22:41:38.027Z,2.50
2022-11-02T22:44:07.461Z,2.60
2022-11-02T22:46:37.643Z,3.23
2022-11-02T22:49:06.389Z,3.00
2022-11-02T22:51:38.775Z,2.60
2022-11-02T22:54:09.973Z,2.43
2022-11-02T22:56:38.075Z,2.57
2022-11-02T22:59:06.517Z,2.73
2022-11-02T23:01:35.675Z,1.90
2022-11-02T23:04:03.991Z,2.30
2022-11-02T23:06:32.069Z,2.40
2022-11-02T23:09:00.394Z,2.47
2022-11-02T23:11:30.733Z,1.87
2022-11-02T23:14:00.023Z,1.87
2022-11-02T23:16:29.728Z,2.50
2022-11-02T23:19:20.529Z,2.17
2022-11-02T23:22:08.629Z,2.27
2022-11-02T23:24:54.242Z,2.30
2022-11-02T23:27:23.565Z,1.60
2022-11-02T23:30:09.173Z,2.00
2022-11-02T23:32:37.783Z,2.40
2022-11-02T23:35:23.999Z,1.97
2022-11-02T23:38:02.417Z,3.13
2022-11-02T23:40:30.488Z,2.97
2022-11-02T23:42:59.848Z,3.70
2022-11-02T23:45:27.896Z,2.60
2022-11-02T23:48:00.842Z,2.30
2022-11-02T23:50:48.966Z,2.40
2022-11-02T23:53:35.991Z,1.87
2022-11-02T23:56:18.343Z,2.10
2022-11-02T23:58:47.786Z,2.03
